地図

経路データ

SID SEASON NUMBER BASIN SUBBASIN NAME ISO_TIME NATURE LAT LON WMO_WIND WMO_PRES WMO_AGENCY TRACK_TYPE DIST2LAND LANDFALL IFLAG USA_AGENCY USA_ATCF_ID USA_LAT USA_LON USA_RECORD USA_STATUS USA_WIND USA_PRES USA_SSHS USA_R34_NE USA_R34_SE USA_R34_SW USA_R34_NW USA_R50_NE USA_R50_SE USA_R50_SW USA_R50_NW USA_R64_NE USA_R64_SE USA_R64_SW USA_R64_NW USA_POCI USA_ROCI USA_RMW USA_EYE TOKYO_LAT TOKYO_LON TOKYO_GRADE TOKYO_WIND TOKYO_PRES TOKYO_R50_DIR TOKYO_R50_LONG TOKYO_R50_SHORT TOKYO_R30_DIR TOKYO_R30_LONG TOKYO_R30_SHORT TOKYO_LAND CMA_LAT CMA_LON CMA_CAT CMA_WIND CMA_PRES HKO_LAT HKO_LON HKO_CAT HKO_WIND HKO_PRES NEWDELHI_LAT NEWDELHI_LON NEWDELHI_GRADE NEWDELHI_WIND NEWDELHI_PRES NEWDELHI_CI NEWDELHI_DP NEWDELHI_POCI REUNION_LAT REUNION_LON REUNION_TYPE REUNION_WIND REUNION_PRES REUNION_TNUM REUNION_CI REUNION_RMW REUNION_R34_NE REUNION_R34_SE REUNION_R34_SW REUNION_R34_NW REUNION_R50_NE REUNION_R50_SE REUNION_R50_SW REUNION_R50_NW REUNION_R64_NE REUNION_R64_SE REUNION_R64_SW REUNION_R64_NW BOM_LAT BOM_LON BOM_TYPE BOM_WIND BOM_PRES BOM_TNUM BOM_CI BOM_RMW BOM_R34_NE BOM_R34_SE BOM_R34_SW BOM_R34_NW BOM_R50_NE BOM_R50_SE BOM_R50_SW BOM_R50_NW BOM_R64_NE BOM_R64_SE BOM_R64_SW BOM_R64_NW BOM_ROCI BOM_POCI BOM_EYE BOM_POS_METHOD BOM_PRES_METHOD NADI_LAT NADI_LON NADI_CAT NADI_WIND NADI_PRES WELLINGTON_LAT WELLINGTON_LON WELLINGTON_WIND WELLINGTON_PRES DS824_LAT DS824_LON DS824_STAGE DS824_WIND DS824_PRES TD9636_LAT TD9636_LON TD9636_STAGE TD9636_WIND TD9636_PRES TD9635_LAT TD9635_LON TD9635_WIND TD9635_PRES TD9635_ROCI NEUMANN_LAT NEUMANN_LON NEUMANN_CLASS NEUMANN_WIND NEUMANN_PRES MLC_LAT MLC_LON MLC_CLASS MLC_WIND MLC_PRES USA_GUST BOM_GUST BOM_GUST_PER REUNION_GUST REUNION_GUST_PER USA_SEAHGT USA_SEARAD_NE USA_SEARAD_SE USA_SEARAD_SW USA_SEARAD_NW STORM_SPEED STORM_DIR
1935274N10136 1935 57 WP MM NOT_NAMED 1935-10-01 10:00:00 NR 9.80000 136.100 main 1071 1071 __________O___ -1 9.80000 136.100 7 1 0
1935274N10136 1935 57 WP MM NOT_NAMED 1935-10-01 12:00:00 NR 9.79402 136.076 main 1071 1060 __________P___ -1 9.79402 136.076 7 1 270
1935274N10136 1935 57 WP MM NOT_NAMED 1935-10-01 15:00:00 NR 9.79982 136.005 main 1060 1038 __________P___ -1 9.79982 136.005 7 2 282
1935274N10136 1935 57 WP MM NOT_NAMED 1935-10-01 18:00:00 NR 9.84357 135.845 main 1038 1009 __________P___ -1 9.84357 135.845 7 5 288
1935274N10136 1935 57 WP MM NOT_NAMED 1935-10-01 21:00:00 NR 9.94790 135.542 main 1009 1001 __________P___ -1 9.94790 135.542 7 7 290
1935274N10136 1935 57 WP MM NOT_NAMED 1935-10-01 22:00:00 NR 10.0000 135.400 main 1001 961 __________O___ -1 10.0000 135.400 7 10 291
1935274N10136 1935 57 WP MM NOT_NAMED 1935-10-02 00:00:00 NR 10.1321 135.049 main 961 906 __________P___ -1 10.1321 135.049 7 13 291
1935274N10136 1935 57 WP MM NOT_NAMED 1935-10-02 03:00:00 NR 10.3807 134.396 main 906 836 __________P___ -1 10.3807 134.396 7 15 291
1935274N10136 1935 57 WP MM NOT_NAMED 1935-10-02 06:00:00 NR 10.6560 133.662 main 839 758 __________P___ -1 10.6560 133.662 7 15 291
1935274N10136 1935 57 WP MM NOT_NAMED 1935-10-02 09:00:00 NR 10.9206 132.930 main 758 740 __________P___ -1 10.9206 132.930 7 15 290
1935274N10136 1935 57 WP MM NOT_NAMED 1935-10-02 10:00:00 NR 11.0000 132.700 main 740 701 __________O___ -1 11.0000 132.700 7 13 288
1935274N10136 1935 57 WP MM NOT_NAMED 1935-10-02 12:00:00 NR 11.1226 132.292 main 701 645 __________P___ -1 11.1226 132.292 7 12 286
1935274N10136 1935 57 WP MM NOT_NAMED 1935-10-02 15:00:00 NR 11.2815 131.717 main 645 591 __________P___ -1 11.2815 131.717 7 11 286
1935274N10136 1935 57 WP MM NOT_NAMED 1935-10-02 18:00:00 NR 11.4215 131.196 main 591 538 __________P___ -1 11.4215 131.196 7 10 286
1935274N10136 1935 57 WP MM NOT_NAMED 1935-10-02 21:00:00 NR 11.5549 130.737 main 538 528 __________P___ -1 11.5549 130.737 7 9 287
1935274N10136 1935 57 WP MM NOT_NAMED 1935-10-02 22:00:00 NR 11.6000 130.600 main 528 497 __________O___ -1 11.6000 130.600 7 8 291
1935274N10136 1935 57 WP MM NOT_NAMED 1935-10-03 00:00:00 NR 11.6996 130.348 main 497 466 __________P___ -1 11.6996 130.348 7 7 294
1935274N10136 1935 57 WP MM NOT_NAMED 1935-10-03 03:00:00 NR 11.8493 130.028 main 466 447 __________P___ -1 11.8493 130.028 7 7 297
1935274N10136 1935 57 WP MM NOT_NAMED 1935-10-03 06:00:00 NR 11.9995 129.751 main 450 421 __________P___ -1 11.9995 129.751 7 6 300
1935274N10136 1935 57 WP MM NOT_NAMED 1935-10-03 09:00:00 NR 12.1499 129.489 main 421 414 __________P___ -1 12.1499 129.489 7 6 300
1935274N10136 1935 57 WP MM NOT_NAMED 1935-10-03 10:00:00 NR 12.2000 129.400 main 414 398 __________O___ -1 12.2000 129.400 7 6 296
1935274N10136 1935 57 WP MM NOT_NAMED 1935-10-03 12:00:00 NR 12.2788 129.218 main 398 370 __________P___ -1 12.2788 129.218 7 6 294
1935274N10136 1935 57 WP MM NOT_NAMED 1935-10-03 15:00:00 NR 12.3966 128.945 main 370 349 __________P___ -1 12.3966 128.945 7 6 295
1935274N10136 1935 57 WP MM NOT_NAMED 1935-10-03 18:00:00 NR 12.5363 128.654 main 349 309 __________P___ -1 12.5363 128.654 7 7 298
1935274N10136 1935 57 WP MM NOT_NAMED 1935-10-03 21:00:00 NR 12.7230 128.323 main 309 300 __________P___ -1 12.7230 128.323 7 8 301
1935274N10136 1935 57 WP MM NOT_NAMED 1935-10-03 22:00:00 NR 12.8000 128.200 main 300 275 __________O___ -1 12.8000 128.200 3 9 306
1935274N10136 1935 57 WP MM NOT_NAMED 1935-10-04 00:00:00 NR 12.9981 127.934 main 275 249 __________P___ -1 12.9981 127.934 3 11 308
1935274N10136 1935 57 WP MM NOT_NAMED 1935-10-04 03:00:00 NR 13.3459 127.491 main 249 233 __________P___ -1 13.3459 127.491 3 12 309
1935274N10136 1935 57 WP MM NOT_NAMED 1935-10-04 06:00:00 NR 13.7213 127.003 main 233 219 __________P___ -1 13.7213 127.003 3 12 307
1935274N10136 1935 57 WP MM NOT_NAMED 1935-10-04 09:00:00 NR 14.0868 126.480 main 227 207 __________P___ -1 14.0868 126.480 3 13 305
1935274N10136 1935 57 WP MM NOT_NAMED 1935-10-04 10:00:00 NR 14.2000 126.300 main 207 171 __________O___ -1 14.2000 126.300 4 12 300
1935274N10136 1935 57 WP MM NOT_NAMED 1935-10-04 12:00:00 NR 14.3974 125.934 main 171 133 __________P___ -1 14.3974 125.934 4 12 297
1935274N10136 1935 57 WP MM NOT_NAMED 1935-10-04 15:00:00 NR 14.6684 125.360 main 140 110 __________P___ -1 14.6684 125.360 4 12 295
1935274N10136 1935 57 WP MM NOT_NAMED 1935-10-04 18:00:00 NR 14.9121 124.772 main 114 109 __________P___ -1 14.9121 124.772 4 12 292
1935274N10136 1935 57 WP MM NOT_NAMED 1935-10-04 21:00:00 NR 15.1316 124.190 main 123 123 __________P___ -1 15.1316 124.190 4 12 291
1935274N10136 1935 57 WP MM NOT_NAMED 1935-10-04 22:00:00 NR 15.2000 124.000 main 134 134 __________O___ -1 15.2000 124.000 4 11 291
1935274N10136 1935 57 WP MM NOT_NAMED 1935-10-05 00:00:00 NR 15.3359 123.643 main 144 124 __________P___ -1 15.3359 123.643 4 11 291
1935274N10136 1935 57 WP MM NOT_NAMED 1935-10-05 03:00:00 NR 15.5213 123.122 main 124 69 __________P___ -1 15.5213 123.122 4 11 289
1935274N10136 1935 57 WP MM NOT_NAMED 1935-10-05 06:00:00 NR 15.6900 122.604 main 69 24 __________P___ -1 15.6900 122.604 4 11 288
1935274N10136 1935 57 WP MM NOT_NAMED 1935-10-05 09:00:00 NR 15.8484 122.079 main 24 11 __________P___ -1 15.8484 122.079 4 11 287
1935274N10136 1935 57 WP MM NOT_NAMED 1935-10-05 10:00:00 NR 15.9000 121.900 main 15 0 __________O___ -1 15.9000 121.900 4 12 286
1935274N10136 1935 57 WP MM NOT_NAMED 1935-10-05 12:00:00 NR 16.0034 121.499 main 0 0 __________P___ -1 16.0034 121.499 4 12 284
1935274N10136 1935 57 WP MM NOT_NAMED 1935-10-05 15:00:00 NR 16.1520 120.885 main 0 0 __________P___ -1 16.1520 120.885 4 12 284
1935274N10136 1935 57 WP MM NOT_NAMED 1935-10-05 18:00:00 NR 16.2982 120.291 main 10 10 __________P___ -1 16.2982 120.291 4 11 285
1935274N10136 1935 57 WP MM NOT_NAMED 1935-10-05 21:00:00 NR 16.4481 119.757 main 11 24 __________P___ -1 16.4481 119.757 4 10 287
1935274N10136 1935 57 WP MM NOT_NAMED 1935-10-05 22:00:00 NR 16.5000 119.600 main 30 30 __________O___ -1 16.5000 119.600 4 8 292
1935274N10136 1935 57 WP MM NOT_NAMED 1935-10-06 00:00:00 NR 16.6049 119.347 main 63 63 __________P___ -1 16.6049 119.347 4 7 297
1935274N10136 1935 57 WP MM NOT_NAMED 1935-10-06 03:00:00 NR 16.7691 119.038 main 102 102 __________P___ -1 16.7691 119.038 4 6 302
1935274N10136 1935 57 WP MM NOT_NAMED 1935-10-06 06:00:00 NR 16.9443 118.771 main 125 132 __________P___ -1 16.9443 118.771 4 6 305
1935274N10136 1935 57 WP MM NOT_NAMED 1935-10-06 09:00:00 NR 17.1334 118.500 main 164 164 __________P___ -1 17.1334 118.500 4 7 306
1935274N10136 1935 57 WP MM NOT_NAMED 1935-10-06 10:00:00 NR 17.2000 118.400 main 179 179 __________O___ -1 17.2000 118.400 4 8 302
1935274N10136 1935 57 WP MM NOT_NAMED 1935-10-06 12:00:00 NR 17.3414 118.146 main 212 218 __________P___ -1 17.3414 118.146 4 9 300
1935274N10136 1935 57 WP MM NOT_NAMED 1935-10-06 15:00:00 NR 17.5660 117.739 main 266 266 __________P___ -1 17.5660 117.739 4 9 300
1935274N10136 1935 57 WP MM NOT_NAMED 1935-10-06 18:00:00 NR 17.7973 117.324 main 314 314 __________P___ -1 17.7973 117.324 4 9 301
1935274N10136 1935 57 WP MM NOT_NAMED 1935-10-06 21:00:00 NR 18.0260 116.925 main 362 362 __________P___ -1 18.0260 116.925 4 9 301
1935274N10136 1935 57 WP MM NOT_NAMED 1935-10-06 22:00:00 NR 18.1000 116.800 main 374 374 __________O___ -1 18.1000 116.800 4 8 303
1935274N10136 1935 57 WP MM NOT_NAMED 1935-10-07 00:00:00 NR 18.2413 116.579 main 397 399 __________P___ -1 18.2413 116.579 4 7 305
1935274N10136 1935 57 WP MM NOT_NAMED 1935-10-07 03:00:00 NR 18.4473 116.274 main 432 434 __________P___ -1 18.4473 116.274 4 7 306
1935274N10136 1935 57 WP MM NOT_NAMED 1935-10-07 06:00:00 NR 18.6462 115.986 main 450 417 __________P___ -1 18.6462 115.986 4 7 306
1935274N10136 1935 57 WP MM NOT_NAMED 1935-10-07 09:00:00 NR 18.8378 115.698 main 417 403 __________P___ -1 18.8378 115.698 4 7 305
1935274N10136 1935 57 WP MM NOT_NAMED 1935-10-07 10:00:00 NR 18.9000 115.600 main 403 386 __________O___ -1 18.9000 115.600 4 7 304
1935274N10136 1935 57 WP MM NOT_NAMED 1935-10-07 12:00:00 NR 19.0300 115.399 main 386 356 __________P___ -1 19.0300 115.399 4 7 304
1935274N10136 1935 57 WP MM NOT_NAMED 1935-10-07 15:00:00 NR 19.2190 115.093 main 356 328 __________P___ -1 19.2190 115.093 4 7 302
1935274N10136 1935 57 WP MM NOT_NAMED 1935-10-07 18:00:00 NR 19.3953 114.770 main 328 295 __________P___ -1 19.3953 114.770 4 7 298
1935274N10136 1935 57 WP MM NOT_NAMED 1935-10-07 21:00:00 NR 19.5528 114.423 main 295 290 __________P___ -1 19.5528 114.423 4 7 295
1935274N10136 1935 57 WP MM NOT_NAMED 1935-10-07 22:00:00 NR 19.6000 114.300 main 290 267 __________O___ -1 19.6000 114.300 4 8 291
1935274N10136 1935 57 WP MM NOT_NAMED 1935-10-08 00:00:00 NR 19.6890 114.042 main 267 242 __________P___ -1 19.6890 114.042 4 8 288
1935274N10136 1935 57 WP MM NOT_NAMED 1935-10-08 03:00:00 NR 19.8037 113.630 main 242 221 __________P___ -1 19.8037 113.630 4 8 285
1935274N10136 1935 57 WP MM NOT_NAMED 1935-10-08 06:00:00 NR 19.8986 113.196 main 221 183 __________P___ -1 19.8986 113.196 4 8 282
1935274N10136 1935 57 WP MM NOT_NAMED 1935-10-08 09:00:00 NR 19.9770 112.750 main 183 173 __________P___ -1 19.9770 112.750 4 9 280
1935274N10136 1935 57 WP MM NOT_NAMED 1935-10-08 10:00:00 NR 20.0000 112.600 main 173 143 __________O___ -1 20.0000 112.600 4 8 278
1935274N10136 1935 57 WP MM NOT_NAMED 1935-10-08 12:00:00 NR 20.0340 112.308 main 143 106 __________P___ -1 20.0340 112.308 4 8 276
1935274N10136 1935 57 WP MM NOT_NAMED 1935-10-08 15:00:00 NR 20.0724 111.864 main 106 56 __________P___ -1 20.0724 111.864 4 8 275
1935274N10136 1935 57 WP MM NOT_NAMED 1935-10-08 18:00:00 NR 20.1122 111.413 main 56 30 __________P___ -1 20.1122 111.413 4 9 277
1935274N10136 1935 57 WP MM NOT_NAMED 1935-10-08 21:00:00 NR 20.1722 110.954 main 30 15 __________P___ -1 20.1722 110.954 4 9 279
1935274N10136 1935 57 WP MM NOT_NAMED 1935-10-08 22:00:00 NR 20.2000 110.800 main 15 11 __________O___ -1 20.2000 110.800 4 9 283
1935274N10136 1935 57 WP MM NOT_NAMED 1935-10-09 00:00:00 NR 20.2743 110.489 main 15 0 __________P___ -1 20.2743 110.489 4 9 286
1935274N10136 1935 57 WP MM NOT_NAMED 1935-10-09 03:00:00 NR 20.4111 110.016 main 0 0 __________P___ -1 20.4111 110.016 4 9 288
1935274N10136 1935 57 WP MM NOT_NAMED 1935-10-09 06:00:00 NR 20.5700 109.539 main 30 30 __________P___ -1 20.5700 109.539 4 10 290
1935274N10136 1935 57 WP MM NOT_NAMED 1935-10-09 09:00:00 NR 20.7416 109.060 main 63 70 __________P___ -1 20.7416 109.060 4 10 291
1935274N10136 1935 57 WP MM NOT_NAMED 1935-10-09 10:00:00 NR 20.8000 108.900 main 73 73 __________O___ -1 20.8000 108.900 2 10 291
1935274N10136 1935 57 WP MM NOT_NAMED 1935-10-09 12:00:00 NR 20.9170 108.582 main 78 39 __________P___ -1 20.9170 108.582 2 10 292
1935274N10136 1935 57 WP MM NOT_NAMED 1935-10-09 15:00:00 NR 21.0925 108.106 main 39 0 __________P___ -1 21.0925 108.106 2 10 292
1935274N10136 1935 57 WP MM NOT_NAMED 1935-10-09 18:00:00 NR 21.2677 107.632 main 0 0 __________P___ -1 21.2677 107.632 2 10 292
1935274N10136 1935 57 WP MM NOT_NAMED 1935-10-09 21:00:00 NR 21.4421 107.158 main 0 0 __________P___ -1 21.4421 107.158 2 10 292
1935274N10136 1935 57 WP MM NOT_NAMED 1935-10-09 22:00:00 NR 21.5000 107.000 main 0 __________O___ -1 21.5000 107.000 2 9 291

デジタル台風データ・検索

IBTrACS Databaseについて

本データベースは、米国NOAAが公開する1842年以降の世界の熱帯低気圧のベストトラックデータアーカイブInternational Best Track Archive for Climate Stewardship (IBTrACS)を、ウェブで閲覧しやすい形式に変換したものです。

最終更新日:2021-12-06